createdAt,value
2019-03-26T00:02:30.787Z,21.60
2019-03-26T00:05:10.148Z,21.90
2019-03-26T00:10:25.008Z,22.30
2019-03-26T00:15:40.258Z,22.00
2019-03-26T00:31:16.815Z,22.30
2019-03-26T00:33:56.269Z,22.30
2019-03-26T00:39:09.720Z,22.40
2019-03-26T00:41:47.768Z,22.30
2019-03-26T00:44:25.872Z,22.30
2019-03-26T00:49:39.281Z,22.50
2019-03-26T00:54:54.016Z,22.20
2019-03-26T00:57:31.992Z,22.30
2019-03-26T01:02:46.072Z,22.10
2019-03-26T01:05:24.119Z,22.10
2019-03-26T01:13:12.792Z,22.70
2019-03-26T01:18:26.417Z,22.60
2019-03-26T01:23:39.701Z,22.90
2019-03-26T01:28:52.809Z,22.90
2019-03-26T01:31:30.756Z,22.90
2019-03-26T01:34:08.765Z,22.80
2019-03-26T01:36:46.912Z,22.90
2019-03-26T01:39:24.901Z,22.90
2019-03-26T01:42:02.945Z,23.00
2019-03-26T01:44:40.932Z,23.30
2019-03-26T01:47:19.015Z,23.40
2019-03-26T01:49:57.132Z,23.40
2019-03-26T01:52:35.196Z,23.50
2019-03-26T01:55:13.346Z,23.40
2019-03-26T01:57:51.442Z,23.50
2019-03-26T02:00:29.496Z,23.70
2019-03-26T02:05:43.051Z,23.70
2019-03-26T02:08:21.382Z,24.40
2019-03-26T02:10:59.400Z,23.10
2019-03-26T02:13:39.287Z,23.70
2019-03-26T02:16:17.355Z,23.80
2019-03-26T02:18:55.404Z,23.90
2019-03-26T02:21:33.583Z,23.30
2019-03-26T02:24:11.725Z,23.70
2019-03-26T02:26:49.676Z,24.10
2019-03-26T02:32:02.838Z,24.50
2019-03-26T02:34:41.506Z,24.90
2019-03-26T02:37:20.422Z,24.90
2019-03-26T02:39:58.747Z,24.70
2019-03-26T02:42:36.752Z,24.80
2019-03-26T02:45:15.331Z,25.00
2019-03-26T02:47:53.744Z,24.70
2019-03-26T02:50:32.011Z,24.70
2019-03-26T02:53:10.196Z,24.90
2019-03-26T02:55:48.683Z,24.90
2019-03-26T02:58:26.782Z,25.10
2019-03-26T03:01:05.251Z,25.20
2019-03-26T03:03:43.308Z,25.30
2019-03-26T03:06:21.283Z,25.50
2019-03-26T03:08:59.315Z,25.60
2019-03-26T03:11:37.634Z,25.90
2019-03-26T03:14:15.601Z,26.10
2019-03-26T03:16:53.970Z,26.20
2019-03-26T03:19:32.067Z,26.80
2019-03-26T03:22:10.090Z,26.20
2019-03-26T03:24:48.447Z,26.40
2019-03-26T03:27:26.662Z,26.10
2019-03-26T03:30:04.692Z,26.70
2019-03-26T03:35:19.281Z,26.20
2019-03-26T03:40:33.039Z,26.10
2019-03-26T03:43:11.285Z,26.80
2019-03-26T03:48:24.746Z,27.20
2019-03-26T03:51:03.817Z,28.00
2019-03-26T03:53:42.188Z,27.80
2019-03-26T03:56:21.555Z,27.60
2019-03-26T04:04:09.893Z,27.70
2019-03-26T04:06:47.892Z,27.40
2019-03-26T04:14:36.389Z,27.80
2019-03-26T04:17:14.383Z,27.90
2019-03-26T04:19:52.570Z,28.00
2019-03-26T04:25:06.351Z,29.20
2019-03-26T04:27:44.272Z,28.90
2019-03-26T04:30:27.667Z,28.00
2019-03-26T04:33:05.719Z,28.30
2019-03-26T04:38:18.846Z,28.10
2019-03-26T04:40:56.946Z,28.30
2019-03-26T04:46:10.407Z,28.60
2019-03-26T04:48:48.416Z,28.90
2019-03-26T04:51:26.564Z,29.20
2019-03-26T04:54:04.768Z,29.60
2019-03-26T04:56:43.154Z,29.30
2019-03-26T04:59:21.132Z,29.50
2019-03-26T05:07:11.455Z,29.00
2019-03-26T05:12:25.253Z,29.10
2019-03-26T05:15:03.150Z,29.30
2019-03-26T05:17:42.641Z,29.60
2019-03-26T05:20:20.647Z,30.10
2019-03-26T05:22:58.674Z,29.90
2019-03-26T05:25:36.639Z,28.50
2019-03-26T05:28:14.897Z,30.00
2019-03-26T05:30:55.328Z,29.10
2019-03-26T05:33:33.339Z,29.30
2019-03-26T05:36:11.274Z,29.50
2019-03-26T05:38:49.624Z,29.90
2019-03-26T05:41:27.604Z,29.80
2019-03-26T05:44:05.650Z,30.10
2019-03-26T05:46:43.794Z,30.30
2019-03-26T05:49:21.984Z,29.50
2019-03-26T05:52:00.201Z,29.70
2019-03-26T05:54:38.389Z,29.40
2019-03-26T05:57:16.467Z,29.50
2019-03-26T05:59:54.687Z,29.80
2019-03-26T06:02:32.817Z,29.30
2019-03-26T06:05:11.390Z,29.60
2019-03-26T06:07:49.436Z,29.60
2019-03-26T06:10:27.826Z,30.10
2019-03-26T06:13:06.397Z,29.90
2019-03-26T06:15:44.781Z,29.90
2019-03-26T06:18:22.985Z,29.80
2019-03-26T06:21:01.162Z,29.60
2019-03-26T06:23:39.458Z,29.90
2019-03-26T06:26:17.584Z,30.30
2019-03-26T06:31:31.527Z,29.70
2019-03-26T06:34:10.625Z,29.80
2019-03-26T06:36:50.009Z,29.80
2019-03-26T06:39:28.034Z,29.70
2019-03-26T06:42:06.040Z,30.20
2019-03-26T06:44:44.072Z,30.20
2019-03-26T06:49:57.741Z,30.20
2019-03-26T06:57:46.463Z,29.10
2019-03-26T07:03:01.048Z,28.60
2019-03-26T07:05:39.062Z,28.80
2019-03-26T07:08:17.325Z,28.80
2019-03-26T07:10:55.543Z,28.60
2019-03-26T07:13:33.637Z,28.80
2019-03-26T07:16:14.253Z,28.50
2019-03-26T07:18:52.360Z,27.80
2019-03-26T07:21:30.313Z,27.40
2019-03-26T07:24:08.557Z,27.40
2019-03-26T07:26:46.482Z,26.50
2019-03-26T07:31:59.557Z,25.90
2019-03-26T07:34:37.649Z,25.60
2019-03-26T07:39:51.170Z,25.60
2019-03-26T07:42:29.067Z,25.20
2019-03-26T07:50:17.994Z,25.00
2019-03-26T07:52:56.299Z,25.00
2019-03-26T07:58:11.495Z,24.60
2019-03-26T08:00:49.514Z,24.70
2019-03-26T08:03:29.473Z,24.90
2019-03-26T08:06:07.884Z,24.50
2019-03-26T08:11:21.548Z,24.30
2019-03-26T08:16:37.447Z,24.90
2019-03-26T08:19:15.799Z,24.50
2019-03-26T08:21:53.855Z,24.00
2019-03-26T08:24:32.463Z,24.80
2019-03-26T08:27:10.555Z,23.60
2019-03-26T08:29:48.522Z,24.20
2019-03-26T08:35:01.815Z,23.80
2019-03-26T08:37:39.904Z,24.10
2019-03-26T08:40:18.385Z,24.60
2019-03-26T08:42:56.467Z,24.00
2019-03-26T08:48:09.763Z,25.00
2019-03-26T08:50:48.097Z,23.70
2019-03-26T08:53:27.405Z,23.80
2019-03-26T08:56:06.835Z,23.80
2019-03-26T09:03:56.215Z,23.50
2019-03-26T09:06:34.330Z,23.40
2019-03-26T09:11:49.495Z,23.70
2019-03-26T09:17:03.004Z,24.00
2019-03-26T09:19:41.078Z,24.00
2019-03-26T09:22:19.501Z,23.70
2019-03-26T09:24:58.745Z,23.80
2019-03-26T09:27:36.788Z,23.20
2019-03-26T09:30:16.161Z,23.50
2019-03-26T09:32:55.043Z,23.30
2019-03-26T09:35:34.034Z,23.80
2019-03-26T09:38:15.217Z,23.70
2019-03-26T09:40:53.418Z,23.00
2019-03-26T09:43:31.834Z,24.10
2019-03-26T09:46:10.603Z,23.30
2019-03-26T09:51:30.173Z,23.30
2019-03-26T09:56:44.322Z,23.30
2019-03-26T09:59:22.795Z,23.50
2019-03-26T10:02:01.328Z,23.10
2019-03-26T10:07:21.353Z,23.10
2019-03-26T10:09:59.571Z,24.10
2019-03-26T10:12:38.371Z,23.40
2019-03-26T10:15:17.171Z,23.10
2019-03-26T10:17:55.487Z,23.00
2019-03-26T10:23:09.704Z,23.00
2019-03-26T10:25:54.692Z,22.80
2019-03-26T10:28:33.231Z,22.90
2019-03-26T10:31:11.684Z,22.80
2019-03-26T10:33:50.274Z,22.90
2019-03-26T10:36:41.590Z,22.90
2019-03-26T10:39:19.996Z,23.30
2019-03-26T10:41:58.414Z,23.30
2019-03-26T10:44:36.941Z,23.40
2019-03-26T10:49:52.009Z,23.00
2019-03-26T10:55:09.089Z,23.30
2019-03-26T10:57:50.039Z,22.90
2019-03-26T11:00:28.092Z,23.10
2019-03-26T11:03:06.557Z,22.70
2019-03-26T11:05:44.758Z,22.90
2019-03-26T11:08:23.201Z,23.00
2019-03-26T11:11:01.583Z,22.50
2019-03-26T11:13:39.671Z,22.50
2019-03-26T11:16:19.063Z,22.60
2019-03-26T11:18:57.180Z,22.60
2019-03-26T11:21:35.576Z,23.40
2019-03-26T11:29:26.454Z,22.40
2019-03-26T11:32:04.580Z,22.60
2019-03-26T11:34:42.682Z,22.10
2019-03-26T11:37:21.902Z,23.00
2019-03-26T11:42:36.558Z,22.70
2019-03-26T11:45:15.373Z,22.80
2019-03-26T11:47:53.641Z,23.00
2019-03-26T11:50:31.786Z,23.30
2019-03-26T11:53:09.777Z,22.50
2019-03-26T11:55:48.245Z,22.60
2019-03-26T12:01:02.801Z,22.90
2019-03-26T12:06:16.651Z,22.50
2019-03-26T12:08:55.894Z,22.80
2019-03-26T12:11:33.922Z,22.00
2019-03-26T12:19:22.497Z,22.50
2019-03-26T12:22:00.521Z,22.10
2019-03-26T12:32:24.530Z,22.00
2019-03-26T12:37:37.947Z,22.50
2019-03-26T12:45:26.179Z,22.00
2019-03-26T12:48:04.527Z,22.20
2019-03-26T12:55:53.161Z,22.00
2019-03-26T12:58:32.720Z,21.80
2019-03-26T13:01:10.260Z,22.60
2019-03-26T13:03:48.368Z,22.30
2019-03-26T13:06:45.875Z,21.90
2019-03-26T13:09:23.915Z,21.80
2019-03-26T13:14:37.123Z,21.90
2019-03-26T13:17:15.811Z,22.10
2019-03-26T13:19:54.091Z,22.00
2019-03-26T13:22:32.117Z,22.30
2019-03-26T13:25:10.707Z,22.70
2019-03-26T13:27:49.053Z,22.30
2019-03-26T13:30:27.046Z,22.10
2019-03-26T13:33:07.032Z,22.20
2019-03-26T13:35:45.056Z,21.50
2019-03-26T13:38:23.315Z,22.20
2019-03-26T13:43:36.993Z,21.90
2019-03-26T13:46:14.989Z,22.20
2019-03-26T13:48:53.245Z,21.80
2019-03-26T13:51:31.310Z,22.50
2019-03-26T13:54:09.257Z,22.30
2019-03-26T13:59:22.543Z,22.20
2019-03-26T14:02:00.457Z,21.80
2019-03-26T14:04:38.553Z,22.00
2019-03-26T14:07:16.609Z,21.80
2019-03-26T14:09:54.505Z,22.70
2019-03-26T14:12:32.607Z,21.60
2019-03-26T14:15:10.810Z,21.60
2019-03-26T14:17:49.389Z,21.80
2019-03-26T14:20:27.688Z,21.70
2019-03-26T14:23:05.666Z,21.60
2019-03-26T14:25:43.717Z,22.00
2019-03-26T14:28:21.933Z,21.60
2019-03-26T14:33:35.695Z,21.90
2019-03-26T14:36:13.994Z,22.00
2019-03-26T14:38:57.232Z,22.10
2019-03-26T14:41:35.326Z,21.80
2019-03-26T14:44:13.246Z,22.00
2019-03-26T14:46:51.331Z,21.60
2019-03-26T14:49:29.877Z,21.90
2019-03-26T14:54:42.949Z,22.00
2019-03-26T14:57:21.325Z,21.60
2019-03-26T14:59:59.208Z,22.10
2019-03-26T15:05:12.967Z,22.00
2019-03-26T15:07:50.990Z,21.40
2019-03-26T15:10:29.335Z,21.30
2019-03-26T15:13:07.249Z,22.00
2019-03-26T15:15:45.547Z,21.60
2019-03-26T15:18:24.939Z,21.80
2019-03-26T15:21:05.078Z,21.60
2019-03-26T15:23:43.348Z,21.60
2019-03-26T15:26:22.332Z,21.60
2019-03-26T15:29:01.279Z,21.70
2019-03-26T15:31:40.360Z,21.40
2019-03-26T15:34:21.574Z,21.10
2019-03-26T15:37:01.543Z,21.50
2019-03-26T15:39:41.215Z,21.50
2019-03-26T15:42:20.446Z,21.50
2019-03-26T15:44:59.710Z,21.50
2019-03-26T15:47:38.115Z,21.50
2019-03-26T15:50:17.911Z,21.70
2019-03-26T15:52:55.865Z,21.60
2019-03-26T15:55:33.807Z,21.50
2019-03-26T15:58:12.112Z,21.40
2019-03-26T16:00:50.473Z,21.00
2019-03-26T16:03:28.499Z,21.00
2019-03-26T16:06:06.577Z,21.40
2019-03-26T16:08:46.371Z,21.20
2019-03-26T16:11:35.780Z,21.20
2019-03-26T16:14:05.572Z,21.20
2019-03-26T16:16:43.665Z,21.00
2019-03-26T16:19:32.214Z,20.90
2019-03-26T16:22:00.749Z,20.70
2019-03-26T16:24:38.743Z,20.60
2019-03-26T16:27:16.870Z,20.10
2019-03-26T16:29:55.556Z,20.30
2019-03-26T16:35:10.387Z,19.90
2019-03-26T16:37:48.365Z,19.60
2019-03-26T16:40:26.403Z,19.60
2019-03-26T16:43:04.320Z,19.70
2019-03-26T16:45:42.485Z,19.40
2019-03-26T16:48:20.517Z,19.40
2019-03-26T16:50:58.728Z,18.80
2019-03-26T16:53:36.932Z,18.60
2019-03-26T16:56:14.873Z,19.30
2019-03-26T16:58:52.914Z,18.50
2019-03-26T17:01:31.273Z,18.80
2019-03-26T17:04:12.116Z,18.40
2019-03-26T17:06:50.191Z,19.00
2019-03-26T17:09:28.272Z,18.90
2019-03-26T17:12:06.941Z,18.50
2019-03-26T17:14:44.996Z,19.20
2019-03-26T17:19:58.223Z,18.90
2019-03-26T17:22:36.294Z,18.70
2019-03-26T17:25:14.994Z,19.20
2019-03-26T17:27:53.116Z,18.70
2019-03-26T17:35:41.401Z,18.60
2019-03-26T17:38:19.669Z,18.70
2019-03-26T17:40:57.856Z,18.00
2019-03-26T17:43:35.965Z,18.10
2019-03-26T17:46:14.174Z,18.60
2019-03-26T17:51:27.326Z,17.70
2019-03-26T17:54:05.916Z,18.30
2019-03-26T17:56:47.115Z,17.40
2019-03-26T17:59:22.995Z,18.50
2019-03-26T18:17:59.018Z,17.80
2019-03-26T18:33:33.395Z,18.40
2019-03-26T19:41:06.184Z,18.20
2019-03-26T19:59:18.084Z,17.00
2019-03-26T20:04:31.390Z,17.10
2019-03-26T21:12:03.241Z,17.30
2019-03-26T21:58:56.277Z,18.50
2019-03-26T22:11:58.686Z,19.50
2019-03-26T22:14:37.902Z,19.30
2019-03-26T22:17:16.123Z,19.30
2019-03-26T22:19:55.040Z,19.50
2019-03-26T22:25:09.139Z,19.50
2019-03-26T22:30:26.725Z,19.20
2019-03-26T22:33:05.538Z,20.20
2019-03-26T22:35:45.663Z,19.80
2019-03-26T22:41:00.722Z,19.30
2019-03-26T22:43:39.829Z,19.80
2019-03-26T22:46:18.120Z,19.80
2019-03-26T22:48:56.781Z,19.80
2019-03-26T22:51:35.384Z,19.80
2019-03-26T22:54:13.786Z,19.70
2019-03-26T22:56:52.193Z,20.00
2019-03-26T22:59:31.115Z,20.10
2019-03-26T23:02:09.836Z,20.60
2019-03-26T23:15:16.557Z,20.80
2019-03-26T23:30:56.158Z,21.10
2019-03-26T23:46:36.898Z,21.60
